createdAt,value
2022-09-21T03:05:59.219Z,66.82
2022-09-21T03:11:02.292Z,999.90
2022-09-21T03:16:06.602Z,5.07
2022-09-21T03:21:08.412Z,62.65
2022-09-21T03:26:11.556Z,999.90
2022-09-21T03:31:13.328Z,999.90
2022-09-21T03:36:15.154Z,999.90
2022-09-21T03:41:18.245Z,27.10
2022-09-21T03:46:19.991Z,999.90
2022-09-21T04:02:39.213Z,999.90
2022-09-21T04:07:41.918Z,999.90
2022-09-21T04:12:45.213Z,999.90
2022-09-21T04:23:42.177Z,9.02
2022-09-21T04:28:44.007Z,11.70
2022-09-21T04:33:48.494Z,13.95
2022-09-21T04:38:52.054Z,999.90
2022-09-21T04:43:53.819Z,58.78
2022-09-21T04:48:55.709Z,795.85
2022-09-21T04:53:58.812Z,999.90
2022-09-21T04:59:00.644Z,999.90
2022-09-21T05:04:02.539Z,999.90
2022-09-21T05:09:05.684Z,999.90
2022-09-21T05:14:07.458Z,999.90
2022-09-21T05:19:09.425Z,999.90
2022-09-21T05:24:37.457Z,999.90
2022-09-21T05:29:40.116Z,999.90
2022-09-21T05:34:52.499Z,999.90
2022-09-21T05:39:56.390Z,755.97
2022-09-21T05:44:58.595Z,999.90
2022-09-21T05:50:06.423Z,24.52
2022-09-21T05:55:19.831Z,999.90
2022-09-21T06:00:23.287Z,999.90
2022-09-21T06:05:25.735Z,999.90
2022-09-21T06:10:33.935Z,999.90
2022-09-21T06:15:35.756Z,2.20
2022-09-21T06:20:37.483Z,999.90
2022-09-21T06:25:40.970Z,999.90
2022-09-21T06:30:42.901Z,999.90
2022-09-21T06:35:51.179Z,0.35
2022-09-21T06:40:54.355Z,999.90
2022-09-21T06:45:57.552Z,999.90
2022-09-21T06:50:59.765Z,999.90
2022-09-21T06:56:04.815Z,999.90
2022-09-21T07:06:10.275Z,999.90
2022-09-21T07:11:13.873Z,999.90
2022-09-21T07:16:16.108Z,999.90
2022-09-21T07:21:17.900Z,999.90
2022-09-21T07:26:28.911Z,999.90
2022-09-21T07:31:30.760Z,999.90
2022-09-21T07:36:32.718Z,999.90
2022-09-21T07:41:36.148Z,999.90
2022-09-21T07:46:47.152Z,999.90
2022-09-21T07:51:49.938Z,999.90
2022-09-21T07:56:53.347Z,999.90
2022-09-21T08:01:55.126Z,999.90
2022-09-21T08:06:56.968Z,999.90
2022-09-21T08:12:00.284Z,999.90
2022-09-21T08:17:03.033Z,999.90
2022-09-21T08:22:05.051Z,93.53
2022-09-21T08:27:08.295Z,0.40
2022-09-21T08:32:13.458Z,0.20
2022-09-21T08:37:24.919Z,0.30
2022-09-21T08:42:42.004Z,0.80
2022-09-21T08:47:45.756Z,0.28
2022-09-21T08:52:48.752Z,1.50
2022-09-21T08:57:53.012Z,545.17
2022-09-21T09:03:21.194Z,7.50
2022-09-21T09:08:53.981Z,21.58
2022-09-21T09:14:31.681Z,0.88
2022-09-21T09:19:42.820Z,1.12
2022-09-21T09:24:49.858Z,1.10
2022-09-21T09:30:02.897Z,1.42
2022-09-21T09:35:16.310Z,0.75
2022-09-21T09:40:26.013Z,0.70
2022-09-21T09:45:51.503Z,1.23
2022-09-21T09:51:00.743Z,1.12
2022-09-21T09:56:03.536Z,1.10
2022-09-21T10:01:32.294Z,1.40
2022-09-21T10:06:34.559Z,1.33
2022-09-21T10:11:38.323Z,1.00
2022-09-21T10:16:42.485Z,1.20
2022-09-21T10:21:48.710Z,2.60
2022-09-21T10:26:55.636Z,2.40
2022-09-21T10:32:05.272Z,3.22
2022-09-21T10:37:28.286Z,3.50
2022-09-21T10:42:35.167Z,2.70
2022-09-21T10:47:44.119Z,2.58
2022-09-21T10:52:49.588Z,1.60
2022-09-21T10:57:52.594Z,0.70
2022-09-21T11:03:11.649Z,1.30
2022-09-21T11:08:21.212Z,1.30
2022-09-21T11:52:53.489Z,3.33
2022-09-21T11:58:02.749Z,1.92
2022-09-21T12:03:37.137Z,1.30
2022-09-21T12:14:33.090Z,0.70
2022-09-21T12:19:45.862Z,14.60
2022-09-21T12:24:51.694Z,0.50
2022-09-21T12:29:59.943Z,0.20
2022-09-21T12:35:05.190Z,0.20
2022-09-21T12:45:22.847Z,0.30
2022-09-21T12:50:29.765Z,0.30
2022-09-21T12:56:05.468Z,0.30
2022-09-21T13:01:25.439Z,0.30
2022-09-21T13:07:01.294Z,0.30
2022-09-21T13:17:21.500Z,1.05
2022-09-21T13:22:31.837Z,0.30
2022-09-21T13:33:40.141Z,0.40
2022-09-21T14:05:49.936Z,20.15
2022-09-21T14:11:07.753Z,999.90
2022-09-21T14:16:47.822Z,999.90
2022-09-21T14:27:31.914Z,999.90
2022-09-21T14:32:42.616Z,102.75
2022-09-21T14:37:49.595Z,132.87
2022-09-21T14:42:54.108Z,48.83
2022-09-21T14:48:06.175Z,0.30
2022-09-21T14:53:37.740Z,0.30
2022-09-21T14:58:54.045Z,0.30
2022-09-21T15:04:20.739Z,0.30
2022-09-21T15:09:45.832Z,0.20
2022-09-21T15:15:00.876Z,0.30
2022-09-21T15:20:20.607Z,0.30
2022-09-21T15:25:24.511Z,999.90
2022-09-21T15:31:24.060Z,765.10
2022-09-21T15:36:29.062Z,11.20
2022-09-21T15:47:54.488Z,999.90
2022-09-21T15:53:05.836Z,999.90
2022-09-21T15:58:20.111Z,95.68
2022-09-21T16:03:25.140Z,0.50
2022-09-21T16:13:47.890Z,0.20
2022-09-21T16:18:53.245Z,0.20
2022-09-21T16:24:26.539Z,0.20
2022-09-21T16:29:40.301Z,0.20
2022-09-21T16:34:54.981Z,0.20
2022-09-21T17:14:02.118Z,0.20
2022-09-21T17:46:20.909Z,0.30
2022-09-21T17:56:58.316Z,157.75
2022-09-21T18:02:04.116Z,62.95
2022-09-21T18:07:13.021Z,72.28
2022-09-21T18:12:59.198Z,67.15
2022-09-21T18:18:12.680Z,70.18
2022-09-21T18:23:24.487Z,9.07
2022-09-21T18:28:41.128Z,16.95
2022-09-21T18:34:00.359Z,15.32
2022-09-21T18:39:18.978Z,73.37
2022-09-21T19:17:17.264Z,31.83
2022-09-21T19:28:12.648Z,14.38
2022-09-21T19:33:48.809Z,19.92
2022-09-21T19:38:55.149Z,16.08
2022-09-21T19:44:08.652Z,44.53
2022-09-21T19:49:15.579Z,999.90
2022-09-21T19:54:21.764Z,999.90
2022-09-21T19:59:25.676Z,999.90
2022-09-21T20:04:33.124Z,999.90
2022-09-21T20:09:40.163Z,999.90
2022-09-21T20:14:47.966Z,999.90
2022-09-21T20:19:55.033Z,999.90
2022-09-21T20:25:03.086Z,28.70
2022-09-21T20:30:11.595Z,999.90
2022-09-21T20:35:26.955Z,9.82
2022-09-21T20:45:32.399Z,5.72
2022-09-21T20:50:34.487Z,11.95
2022-09-21T20:55:36.540Z,5.80
2022-09-21T21:00:42.745Z,6.10
2022-09-21T21:05:45.092Z,173.98
2022-09-21T21:10:47.052Z,5.87
